KGIF/GIF METAR and TAF weather

Enter ICAO airport designator
Station Type Date Time Source
KGIF METAR 2020/09/28 08:53 UTC NOAA

KGIF 280853Z AUTO 00000KT 10SM FEW120 24/23 A2990 RMK AO2 RAB03E35 SLP123 P0000 60000 T02440233 56006 $


Station Type Date Time Source
KGIF Decoded METAR 2020/09/28 08:53 UTC NOAA

WINTER HAVENS GILBERT AIRPORT , FL, United States (KGIF) 28-04N 81-45W 43M
Sep 28, 2020 - 04:53 AM EDT / 2020.09.28 0853 UTC
Wind: Calm:0
Visibility: 10 mile(s):0
Sky conditions: mostly clear
Precipitation last hour: A trace
Temperature: 75.9 F (24.4 C)
Dew Point: 73.9 F (23.3 C)
Relative Humidity: 93%
Pressure (altimeter): 29.9 in. Hg (1012 hPa)
Pressure tendency: 0.02 inches (0.6 hPa) lower than three hours ago
ob: KGIF 280853Z AUTO 00000KT 10SM FEW120 24/23 A2990 RMK AO2 RAB03E35 SLP123 P0000 60000 T02440233 56006
cycle: 9

Station Type Date Time Source
KGIF TAF UTC NOAA

Error!

Example: see airport list